sensor_id;sensor_type;location;lat;lon;timestamp;P1;durP1;ratioP1;P2;durP2;ratioP2
78430;SDS011;67727;50.236;22.452;2024-03-23T00:54:55;22.90;;;14.40;;
78430;SDS011;67727;50.236;22.452;2024-03-23T00:57:22;24.30;;;14.60;;
78430;SDS011;67727;50.236;22.452;2024-03-23T00:59:48;23.10;;;14.30;;
78430;SDS011;67727;50.236;22.452;2024-03-23T01:02:15;24.00;;;15.20;;
78430;SDS011;67727;50.236;22.452;2024-03-23T01:04:42;22.50;;;13.50;;
78430;SDS011;67727;50.236;22.452;2024-03-23T01:07:09;21.60;;;13.90;;
78430;SDS011;67727;50.236;22.452;2024-03-23T01:09:36;20.10;;;12.20;;
78430;SDS011;67727;50.236;22.452;2024-03-23T01:12:05;21.90;;;12.10;;
78430;SDS011;67727;50.236;22.452;2024-03-23T01:14:32;23.40;;;13.00;;
78430;SDS011;67727;50.236;22.452;2024-03-23T01:16:59;21.60;;;13.10;;
78430;SDS011;67727;50.236;22.452;2024-03-23T01:19:25;20.10;;;12.50;;
78430;SDS011;67727;50.236;22.452;2024-03-23T01:21:52;20.90;;;12.90;;
78430;SDS011;67727;50.236;22.452;2024-03-23T01:24:19;21.20;;;13.60;;
78430;SDS011;67727;50.236;22.452;2024-03-23T01:26:46;25.60;;;14.10;;
78430;SDS011;67727;50.236;22.452;2024-03-23T01:29:12;21.80;;;13.10;;
78430;SDS011;67727;50.236;22.452;2024-03-23T01:31:39;22.00;;;13.00;;
78430;SDS011;67727;50.236;22.452;2024-03-23T01:34:06;21.90;;;14.10;;
78430;SDS011;67727;50.236;22.452;2024-03-23T01:36:34;21.40;;;13.80;;
78430;SDS011;67727;50.236;22.452;2024-03-23T01:39:00;21.80;;;13.30;;
78430;SDS011;67727;50.236;22.452;2024-03-23T01:41:27;21.70;;;13.20;;
78430;SDS011;67727;50.236;22.452;2024-03-23T01:43:55;23.40;;;13.50;;
78430;SDS011;67727;50.236;22.452;2024-03-23T01:46:23;23.40;;;14.00;;
78430;SDS011;67727;50.236;22.452;2024-03-23T01:48:49;19.50;;;12.20;;
78430;SDS011;67727;50.236;22.452;2024-03-23T01:51:16;22.50;;;12.50;;
78430;SDS011;67727;50.236;22.452;2024-03-23T01:53:44;20.40;;;12.50;;
78430;SDS011;67727;50.236;22.452;2024-03-23T01:56:11;23.90;;;12.40;;
78430;SDS011;67727;50.236;22.452;2024-03-23T01:58:39;20.10;;;12.20;;
78430;SDS011;67727;50.236;22.452;2024-03-23T02:01:06;20.50;;;12.30;;
78430;SDS011;67727;50.236;22.452;2024-03-23T02:03:33;24.70;;;13.80;;
78430;SDS011;67727;50.236;22.452;2024-03-23T02:05:59;20.30;;;13.20;;
78430;SDS011;67727;50.236;22.452;2024-03-23T02:08:26;23.00;;;13.20;;
78430;SDS011;67727;50.236;22.452;2024-03-23T02:10:53;21.20;;;13.40;;
78430;SDS011;67727;50.236;22.452;2024-03-23T02:13:20;21.10;;;12.10;;
78430;SDS011;67727;50.236;22.452;2024-03-23T02:15:47;23.60;;;12.20;;
78430;SDS011;67727;50.236;22.452;2024-03-23T02:18:14;20.60;;;12.10;;
78430;SDS011;67727;50.236;22.452;2024-03-23T02:20:41;21.50;;;13.30;;
78430;SDS011;67727;50.236;22.452;2024-03-23T02:23:14;21.80;;;12.60;;
78430;SDS011;67727;50.236;22.452;2024-03-23T02:25:42;21.80;;;12.10;;
78430;SDS011;67727;50.236;22.452;2024-03-23T02:28:09;23.30;;;13.70;;
78430;SDS011;67727;50.236;22.452;2024-03-23T02:30:37;19.30;;;11.10;;
78430;SDS011;67727;50.236;22.452;2024-03-23T02:33:04;23.30;;;13.20;;
78430;SDS011;67727;50.236;22.452;2024-03-23T02:35:31;22.10;;;13.50;;
78430;SDS011;67727;50.236;22.452;2024-03-23T02:37:58;22.90;;;11.40;;
78430;SDS011;67727;50.236;22.452;2024-03-23T02:40:25;23.50;;;13.10;;
78430;SDS011;67727;50.236;22.452;2024-03-23T02:42:52;20.60;;;11.50;;
78430;SDS011;67727;50.236;22.452;2024-03-23T02:45:19;21.20;;;12.00;;
78430;SDS011;67727;50.236;22.452;2024-03-23T02:47:46;21.90;;;12.20;;
78430;SDS011;67727;50.236;22.452;2024-03-23T02:50:13;19.90;;;11.60;;
78430;SDS011;67727;50.236;22.452;2024-03-23T02:52:42;20.20;;;12.50;;
78430;SDS011;67727;50.236;22.452;2024-03-23T02:55:08;18.10;;;10.70;;
78430;SDS011;67727;50.236;22.452;2024-03-23T02:57:35;20.50;;;12.20;;
78430;SDS011;67727;50.236;22.452;2024-03-23T03:00:02;17.70;;;10.90;;
78430;SDS011;67727;50.236;22.452;2024-03-23T03:02:30;20.00;;;11.10;;
78430;SDS011;67727;50.236;22.452;2024-03-23T03:04:57;21.50;;;11.60;;
78430;SDS011;67727;50.236;22.452;2024-03-23T03:07:24;19.00;;;12.10;;
78430;SDS011;67727;50.236;22.452;2024-03-23T03:09:51;19.10;;;11.10;;
78430;SDS011;67727;50.236;22.452;2024-03-23T03:12:17;20.20;;;12.10;;
78430;SDS011;67727;50.236;22.452;2024-03-23T03:14:44;18.80;;;12.10;;
78430;SDS011;67727;50.236;22.452;2024-03-23T03:17:11;21.10;;;11.70;;
78430;SDS011;67727;50.236;22.452;2024-03-23T03:19:38;17.50;;;10.60;;
78430;SDS011;67727;50.236;22.452;2024-03-23T03:22:05;18.40;;;11.90;;
78430;SDS011;67727;50.236;22.452;2024-03-23T03:24:32;17.80;;;11.80;;
78430;SDS011;67727;50.236;22.452;2024-03-23T03:26:59;18.70;;;11.50;;
78430;SDS011;67727;50.236;22.452;2024-03-23T03:29:26;22.60;;;12.90;;
78430;SDS011;67727;50.236;22.452;2024-03-23T03:32:00;18.80;;;11.40;;
78430;SDS011;67727;50.236;22.452;2024-03-23T03:34:28;16.30;;;10.50;;
78430;SDS011;67727;50.236;22.452;2024-03-23T03:36:56;19.80;;;10.60;;
78430;SDS011;67727;50.236;22.452;2024-03-23T03:41:50;21.40;;;12.20;;
78430;SDS011;67727;50.236;22.452;2024-03-23T03:44:17;19.50;;;10.90;;
78430;SDS011;67727;50.236;22.452;2024-03-23T03:46:44;20.80;;;11.20;;
78430;SDS011;67727;50.236;22.452;2024-03-23T03:49:10;19.50;;;11.30;;
78430;SDS011;67727;50.236;22.452;2024-03-23T03:51:37;20.30;;;10.90;;
78430;SDS011;67727;50.236;22.452;2024-03-23T03:54:04;21.10;;;12.50;;
78430;SDS011;67727;50.236;22.452;2024-03-23T03:56:31;19.30;;;11.20;;
78430;SDS011;67727;50.236;22.452;2024-03-23T03:58:57;19.10;;;10.80;;
78430;SDS011;67727;50.236;22.452;2024-03-23T04:01:24;17.70;;;10.70;;
78430;SDS011;67727;50.236;22.452;2024-03-23T04:03:51;17.60;;;11.40;;
78430;SDS011;67727;50.236;22.452;2024-03-23T04:06:18;20.00;;;11.60;;
78430;SDS011;67727;50.236;22.452;2024-03-23T04:08:46;19.90;;;11.80;;
78430;SDS011;67727;50.236;22.452;2024-03-23T04:11:13;18.50;;;11.30;;
78430;SDS011;67727;50.236;22.452;2024-03-23T04:13:39;20.70;;;12.60;;
78430;SDS011;67727;50.236;22.452;2024-03-23T04:16:08;24.90;;;13.30;;
78430;SDS011;67727;50.236;22.452;2024-03-23T04:21:02;24.10;;;12.50;;
78430;SDS011;67727;50.236;22.452;2024-03-23T04:23:29;23.10;;;12.50;;
78430;SDS011;67727;50.236;22.452;2024-03-23T04:25:57;20.50;;;11.20;;
78430;SDS011;67727;50.236;22.452;2024-03-23T04:28:29;22.30;;;11.70;;
78430;SDS011;67727;50.236;22.452;2024-03-23T04:30:56;18.90;;;12.00;;
78430;SDS011;67727;50.236;22.452;2024-03-23T04:33:23;21.40;;;11.80;;
78430;SDS011;67727;50.236;22.452;2024-03-23T04:35:49;20.10;;;12.40;;
78430;SDS011;67727;50.236;22.452;2024-03-23T04:38:16;20.80;;;12.20;;
78430;SDS011;67727;50.236;22.452;2024-03-23T04:40:43;17.70;;;10.90;;
78430;SDS011;67727;50.236;22.452;2024-03-23T04:43:09;19.00;;;11.40;;
78430;SDS011;67727;50.236;22.452;2024-03-23T04:45:36;19.00;;;11.90;;
78430;SDS011;67727;50.236;22.452;2024-03-23T04:48:03;21.60;;;12.20;;
78430;SDS011;67727;50.236;22.452;2024-03-23T04:50:30;21.20;;;11.90;;
78430;SDS011;67727;50.236;22.452;2024-03-23T04:52:57;21.70;;;12.00;;
78430;SDS011;67727;50.236;22.452;2024-03-23T04:55:24;20.30;;;12.60;;
78430;SDS011;67727;50.236;22.452;2024-03-23T04:57:50;21.50;;;12.50;;
78430;SDS011;67727;50.236;22.452;2024-03-23T05:00:17;21.20;;;13.10;;
78430;SDS011;67727;50.236;22.452;2024-03-23T05:02:45;21.80;;;11.40;;
78430;SDS011;67727;50.236;22.452;2024-03-23T05:05:12;20.80;;;12.30;;
78430;SDS011;67727;50.236;22.452;2024-03-23T05:07:38;16.70;;;10.90;;
78430;SDS011;67727;50.236;22.452;2024-03-23T05:10:05;19.10;;;11.70;;
78430;SDS011;67727;50.236;22.452;2024-03-23T05:12:37;18.30;;;11.50;;
78430;SDS011;67727;50.236;22.452;2024-03-23T05:15:04;22.00;;;12.40;;
78430;SDS011;67727;50.236;22.452;2024-03-23T05:17:32;21.50;;;12.50;;
78430;SDS011;67727;50.236;22.452;2024-03-23T05:19:59;19.20;;;12.30;;
78430;SDS011;67727;50.236;22.452;2024-03-23T05:22:26;23.10;;;12.50;;
78430;SDS011;67727;50.236;22.452;2024-03-23T05:24:53;19.60;;;12.60;;
78430;SDS011;67727;50.236;22.452;2024-03-23T05:27:20;19.60;;;12.10;;
78430;SDS011;67727;50.236;22.452;2024-03-23T05:29:47;18.80;;;12.30;;
78430;SDS011;67727;50.236;22.452;2024-03-23T05:32:13;19.80;;;11.50;;
78430;SDS011;67727;50.236;22.452;2024-03-23T05:34:40;18.90;;;11.70;;
78430;SDS011;67727;50.236;22.452;2024-03-23T05:37:07;21.50;;;11.90;;
78430;SDS011;67727;50.236;22.452;2024-03-23T05:39:34;20.30;;;11.90;;
78430;SDS011;67727;50.236;22.452;2024-03-23T05:42:01;19.40;;;11.80;;
78430;SDS011;67727;50.236;22.452;2024-03-23T05:44:27;20.50;;;11.40;;
78430;SDS011;67727;50.236;22.452;2024-03-23T05:46:54;21.30;;;12.00;;
78430;SDS011;67727;50.236;22.452;2024-03-23T05:49:21;20.30;;;11.20;;
78430;SDS011;67727;50.236;22.452;2024-03-23T05:51:48;29.80;;;15.80;;
78430;SDS011;67727;50.236;22.452;2024-03-23T05:54:14;38.80;;;20.40;;
78430;SDS011;67727;50.236;22.452;2024-03-23T05:56:41;39.20;;;20.40;;
78430;SDS011;67727;50.236;22.452;2024-03-23T05:59:08;35.60;;;17.60;;
78430;SDS011;67727;50.236;22.452;2024-03-23T06:01:35;24.30;;;14.70;;
78430;SDS011;67727;50.236;22.452;2024-03-23T06:04:02;26.00;;;15.10;;
78430;SDS011;67727;50.236;22.452;2024-03-23T06:06:29;24.30;;;13.90;;
78430;SDS011;67727;50.236;22.452;2024-03-23T06:08:56;23.90;;;13.70;;
78430;SDS011;67727;50.236;22.452;2024-03-23T06:11:23;25.80;;;14.70;;
78430;SDS011;67727;50.236;22.452;2024-03-23T06:13:50;24.60;;;15.30;;
78430;SDS011;67727;50.236;22.452;2024-03-23T06:16:17;25.60;;;14.80;;
78430;SDS011;67727;50.236;22.452;2024-03-23T06:18:50;25.50;;;13.60;;
78430;SDS011;67727;50.236;22.452;2024-03-23T06:23:44;17.90;;;10.70;;
78430;SDS011;67727;50.236;22.452;2024-03-23T06:26:20;22.20;;;12.20;;
78430;SDS011;67727;50.236;22.452;2024-03-23T06:28:47;20.70;;;11.70;;
78430;SDS011;67727;50.236;22.452;2024-03-23T06:31:14;21.60;;;12.70;;
78430;SDS011;67727;50.236;22.452;2024-03-23T06:33:41;30.10;;;17.00;;
78430;SDS011;67727;50.236;22.452;2024-03-23T06:36:11;29.30;;;18.10;;
78430;SDS011;67727;50.236;22.452;2024-03-23T06:38:38;30.90;;;18.90;;
78430;SDS011;67727;50.236;22.452;2024-03-23T06:41:05;29.50;;;21.20;;
78430;SDS011;67727;50.236;22.452;2024-03-23T06:43:32;30.20;;;20.00;;
78430;SDS011;67727;50.236;22.452;2024-03-23T06:45:59;32.70;;;22.00;;
78430;SDS011;67727;50.236;22.452;2024-03-23T06:48:25;25.10;;;14.20;;
78430;SDS011;67727;50.236;22.452;2024-03-23T06:50:58;24.10;;;13.30;;
78430;SDS011;67727;50.236;22.452;2024-03-23T06:53:25;19.60;;;11.70;;
78430;SDS011;67727;50.236;22.452;2024-03-23T06:55:52;18.30;;;11.70;;
78430;SDS011;67727;50.236;22.452;2024-03-23T06:58:20;21.30;;;12.40;;
78430;SDS011;67727;50.236;22.452;2024-03-23T07:00:48;22.10;;;13.40;;
78430;SDS011;67727;50.236;22.452;2024-03-23T07:03:16;18.90;;;12.20;;
78430;SDS011;67727;50.236;22.452;2024-03-23T07:05:46;22.50;;;13.50;;
78430;SDS011;67727;50.236;22.452;2024-03-23T07:08:13;21.00;;;13.40;;
78430;SDS011;67727;50.236;22.452;2024-03-23T07:10:45;21.40;;;13.30;;
78430;SDS011;67727;50.236;22.452;2024-03-23T07:13:11;22.50;;;12.60;;
78430;SDS011;67727;50.236;22.452;2024-03-23T07:15:39;25.10;;;13.70;;
78430;SDS011;67727;50.236;22.452;2024-03-23T07:18:06;22.50;;;13.90;;
78430;SDS011;67727;50.236;22.452;2024-03-23T07:20:32;23.20;;;11.90;;
78430;SDS011;67727;50.236;22.452;2024-03-23T07:22:59;18.60;;;11.90;;
78430;SDS011;67727;50.236;22.452;2024-03-23T07:25:26;21.20;;;13.10;;
78430;SDS011;67727;50.236;22.452;2024-03-23T07:27:55;21.30;;;12.20;;
78430;SDS011;67727;50.236;22.452;2024-03-23T07:30:22;21.60;;;13.00;;
78430;SDS011;67727;50.236;22.452;2024-03-23T07:32:49;22.10;;;12.50;;
78430;SDS011;67727;50.236;22.452;2024-03-23T07:35:15;21.00;;;12.40;;
78430;SDS011;67727;50.236;22.452;2024-03-23T07:37:42;21.90;;;12.70;;
78430;SDS011;67727;50.236;22.452;2024-03-23T07:40:09;21.70;;;13.00;;
78430;SDS011;67727;50.236;22.452;2024-03-23T07:42:36;20.40;;;11.80;;
78430;SDS011;67727;50.236;22.452;2024-03-23T07:45:03;21.00;;;13.50;;
78430;SDS011;67727;50.236;22.452;2024-03-23T07:47:30;20.20;;;13.00;;
78430;SDS011;67727;50.236;22.452;2024-03-23T07:49:57;20.60;;;12.50;;
78430;SDS011;67727;50.236;22.452;2024-03-23T07:52:24;21.30;;;12.90;;
78430;SDS011;67727;50.236;22.452;2024-03-23T07:54:51;19.90;;;11.60;;
78430;SDS011;67727;50.236;22.452;2024-03-23T07:57:17;18.90;;;12.90;;
78430;SDS011;67727;50.236;22.452;2024-03-23T07:59:44;21.10;;;12.70;;
78430;SDS011;67727;50.236;22.452;2024-03-23T08:02:11;22.10;;;13.10;;
78430;SDS011;67727;50.236;22.452;2024-03-23T08:04:38;21.20;;;13.30;;
78430;SDS011;67727;50.236;22.452;2024-03-23T08:07:05;20.10;;;13.50;;
78430;SDS011;67727;50.236;22.452;2024-03-23T08:09:32;18.60;;;12.30;;
78430;SDS011;67727;50.236;22.452;2024-03-23T08:11:59;21.60;;;13.10;;
78430;SDS011;67727;50.236;22.452;2024-03-23T08:14:25;21.30;;;14.00;;
78430;SDS011;67727;50.236;22.452;2024-03-23T08:16:54;27.40;;;15.00;;
78430;SDS011;67727;50.236;22.452;2024-03-23T08:19:21;22.30;;;13.60;;
78430;SDS011;67727;50.236;22.452;2024-03-23T08:21:47;22.40;;;13.50;;
78430;SDS011;67727;50.236;22.452;2024-03-23T08:26:41;19.00;;;12.80;;
78430;SDS011;67727;50.236;22.452;2024-03-23T08:29:08;20.20;;;11.80;;
78430;SDS011;67727;50.236;22.452;2024-03-23T08:31:35;21.20;;;12.80;;
78430;SDS011;67727;50.236;22.452;2024-03-23T08:34:02;22.60;;;13.40;;
78430;SDS011;67727;50.236;22.452;2024-03-23T08:36:29;23.60;;;14.70;;
78430;SDS011;67727;50.236;22.452;2024-03-23T08:38:57;21.00;;;12.50;;
78430;SDS011;67727;50.236;22.452;2024-03-23T08:41:24;20.50;;;12.40;;
78430;SDS011;67727;50.236;22.452;2024-03-23T08:43:51;18.30;;;12.00;;
78430;SDS011;67727;50.236;22.452;2024-03-23T08:46:18;21.20;;;12.90;;
78430;SDS011;67727;50.236;22.452;2024-03-23T08:48:45;21.90;;;13.20;;
78430;SDS011;67727;50.236;22.452;2024-03-23T08:51:15;25.40;;;15.80;;
78430;SDS011;67727;50.236;22.452;2024-03-23T08:53:43;22.30;;;12.60;;
78430;SDS011;67727;50.236;22.452;2024-03-23T08:56:10;20.10;;;12.60;;
78430;SDS011;67727;50.236;22.452;2024-03-23T08:58:38;18.10;;;12.20;;
78430;SDS011;67727;50.236;22.452;2024-03-23T09:01:08;19.50;;;13.00;;
78430;SDS011;67727;50.236;22.452;2024-03-23T09:03:37;19.40;;;12.00;;
78430;SDS011;67727;50.236;22.452;2024-03-23T09:06:08;20.30;;;13.00;;
78430;SDS011;67727;50.236;22.452;2024-03-23T09:08:36;21.80;;;12.20;;
78430;SDS011;67727;50.236;22.452;2024-03-23T09:11:03;19.80;;;13.20;;
78430;SDS011;67727;50.236;22.452;2024-03-23T09:13:35;20.30;;;13.60;;
78430;SDS011;67727;50.236;22.452;2024-03-23T09:16:03;19.90;;;13.50;;
78430;SDS011;67727;50.236;22.452;2024-03-23T09:18:32;19.50;;;12.00;;
78430;SDS011;67727;50.236;22.452;2024-03-23T09:21:00;22.80;;;12.90;;
78430;SDS011;67727;50.236;22.452;2024-03-23T09:23:27;16.30;;;11.20;;
78430;SDS011;67727;50.236;22.452;2024-03-23T09:25:53;23.60;;;12.60;;
78430;SDS011;67727;50.236;22.452;2024-03-23T09:28:20;22.60;;;13.00;;
78430;SDS011;67727;50.236;22.452;2024-03-23T09:30:47;23.90;;;12.10;;
78430;SDS011;67727;50.236;22.452;2024-03-23T09:33:14;22.80;;;13.20;;
78430;SDS011;67727;50.236;22.452;2024-03-23T09:35:41;18.90;;;12.40;;
78430;SDS011;67727;50.236;22.452;2024-03-23T09:38:09;22.50;;;11.90;;
78430;SDS011;67727;50.236;22.452;2024-03-23T09:40:40;20.20;;;12.40;;
78430;SDS011;67727;50.236;22.452;2024-03-23T09:43:08;20.00;;;11.90;;
78430;SDS011;67727;50.236;22.452;2024-03-23T09:45:36;18.50;;;11.30;;
78430;SDS011;67727;50.236;22.452;2024-03-23T09:48:05;26.60;;;13.00;;
78430;SDS011;67727;50.236;22.452;2024-03-23T09:50:35;30.70;;;16.10;;
78430;SDS011;67727;50.236;22.452;2024-03-23T09:53:06;20.00;;;12.90;;
78430;SDS011;67727;50.236;22.452;2024-03-23T09:55:34;18.20;;;12.10;;
78430;SDS011;67727;50.236;22.452;2024-03-23T09:58:02;21.60;;;12.40;;
78430;SDS011;67727;50.236;22.452;2024-03-23T10:00:31;21.40;;;13.30;;
78430;SDS011;67727;50.236;22.452;2024-03-23T10:02:59;18.00;;;10.60;;
78430;SDS011;67727;50.236;22.452;2024-03-23T10:05:29;19.80;;;12.80;;
78430;SDS011;67727;50.236;22.452;2024-03-23T10:07:58;16.80;;;11.00;;
78430;SDS011;67727;50.236;22.452;2024-03-23T10:10:24;18.60;;;10.20;;
78430;SDS011;67727;50.236;22.452;2024-03-23T10:12:52;15.10;;;10.30;;
78430;SDS011;67727;50.236;22.452;2024-03-23T10:17:46;17.00;;;11.80;;
78430;SDS011;67727;50.236;22.452;2024-03-23T10:20:20;19.00;;;12.20;;
78430;SDS011;67727;50.236;22.452;2024-03-23T10:22:51;19.10;;;11.00;;
78430;SDS011;67727;50.236;22.452;2024-03-23T10:25:18;17.10;;;10.60;;
78430;SDS011;67727;50.236;22.452;2024-03-23T10:27:58;19.10;;;10.30;;
78430;SDS011;67727;50.236;22.452;2024-03-23T10:30:27;17.80;;;10.20;;
78430;SDS011;67727;50.236;22.452;2024-03-23T10:35:33;20.00;;;12.30;;
78430;SDS011;67727;50.236;22.452;2024-03-23T10:37:59;17.70;;;11.80;;
78430;SDS011;67727;50.236;22.452;2024-03-23T10:40:26;17.40;;;10.90;;
78430;SDS011;67727;50.236;22.452;2024-03-23T10:42:56;17.90;;;11.10;;
78430;SDS011;67727;50.236;22.452;2024-03-23T10:45:25;18.30;;;12.40;;
78430;SDS011;67727;50.236;22.452;2024-03-23T10:47:51;18.00;;;12.60;;
78430;SDS011;67727;50.236;22.452;2024-03-23T10:50:18;17.80;;;12.10;;
78430;SDS011;67727;50.236;22.452;2024-03-23T10:52:48;18.40;;;12.10;;
78430;SDS011;67727;50.236;22.452;2024-03-23T10:55:16;20.50;;;12.00;;
78430;SDS011;67727;50.236;22.452;2024-03-23T10:57:49;17.60;;;10.60;;
78430;SDS011;67727;50.236;22.452;2024-03-23T11:00:19;18.80;;;10.90;;
78430;SDS011;67727;50.236;22.452;2024-03-23T11:02:48;15.80;;;10.70;;
78430;SDS011;67727;50.236;22.452;2024-03-23T11:07:51;17.40;;;11.10;;
78430;SDS011;67727;50.236;22.452;2024-03-23T11:10:26;16.20;;;10.60;;
78430;SDS011;67727;50.236;22.452;2024-03-23T11:12:57;15.60;;;10.50;;
78430;SDS011;67727;50.236;22.452;2024-03-23T11:15:24;15.90;;;9.90;;
78430;SDS011;67727;50.236;22.452;2024-03-23T11:20:35;15.40;;;10.10;;
78430;SDS011;67727;50.236;22.452;2024-03-23T11:23:02;16.80;;;11.10;;
78430;SDS011;67727;50.236;22.452;2024-03-23T11:25:29;14.20;;;9.90;;
78430;SDS011;67727;50.236;22.452;2024-03-23T11:28:17;13.70;;;9.60;;
78430;SDS011;67727;50.236;22.452;2024-03-23T11:30:44;12.80;;;9.10;;
78430;SDS011;67727;50.236;22.452;2024-03-23T11:33:11;14.20;;;10.10;;
78430;SDS011;67727;50.236;22.452;2024-03-23T11:35:39;15.50;;;10.50;;
78430;SDS011;67727;50.236;22.452;2024-03-23T11:40:38;21.30;;;10.50;;
78430;SDS011;67727;50.236;22.452;2024-03-23T11:43:10;16.20;;;9.70;;
78430;SDS011;67727;50.236;22.452;2024-03-23T11:45:43;16.30;;;10.20;;
78430;SDS011;67727;50.236;22.452;2024-03-23T11:48:12;13.10;;;9.20;;
78430;SDS011;67727;50.236;22.452;2024-03-23T11:50:48;16.30;;;9.10;;
78430;SDS011;67727;50.236;22.452;2024-03-23T11:53:16;15.90;;;10.40;;
78430;SDS011;67727;50.236;22.452;2024-03-23T12:00:59;16.70;;;8.70;;
78430;SDS011;67727;50.236;22.452;2024-03-23T12:03:31;15.70;;;9.70;;
78430;SDS011;67727;50.236;22.452;2024-03-23T12:06:01;16.00;;;8.80;;
78430;SDS011;67727;50.236;22.452;2024-03-23T12:08:33;14.00;;;9.70;;
78430;SDS011;67727;50.236;22.452;2024-03-23T12:11:19;18.90;;;12.00;;
78430;SDS011;67727;50.236;22.452;2024-03-23T12:13:46;14.00;;;9.30;;
78430;SDS011;67727;50.236;22.452;2024-03-23T12:18:42;18.00;;;12.50;;
78430;SDS011;67727;50.236;22.452;2024-03-23T12:21:10;18.90;;;14.20;;
78430;SDS011;67727;50.236;22.452;2024-03-23T12:23:40;19.30;;;10.00;;
78430;SDS011;67727;50.236;22.452;2024-03-23T12:26:07;14.10;;;8.50;;
78430;SDS011;67727;50.236;22.452;2024-03-23T12:28:34;21.40;;;10.80;;
78430;SDS011;67727;50.236;22.452;2024-03-23T12:31:01;14.30;;;9.70;;
78430;SDS011;67727;50.236;22.452;2024-03-23T12:33:28;23.80;;;12.90;;
78430;SDS011;67727;50.236;22.452;2024-03-23T12:35:54;32.90;;;14.80;;
78430;SDS011;67727;50.236;22.452;2024-03-23T12:38:21;31.70;;;15.50;;
78430;SDS011;67727;50.236;22.452;2024-03-23T12:40:49;60.00;;;23.40;;
78430;SDS011;67727;50.236;22.452;2024-03-23T12:43:17;44.90;;;20.40;;
78430;SDS011;67727;50.236;22.452;2024-03-23T12:45:48;30.50;;;14.90;;
78430;SDS011;67727;50.236;22.452;2024-03-23T12:48:18;21.30;;;11.50;;
78430;SDS011;67727;50.236;22.452;2024-03-23T12:50:45;20.70;;;11.30;;
78430;SDS011;67727;50.236;22.452;2024-03-23T12:53:12;18.70;;;9.80;;
78430;SDS011;67727;50.236;22.452;2024-03-23T12:55:39;16.80;;;9.20;;
78430;SDS011;67727;50.236;22.452;2024-03-23T12:58:05;15.90;;;9.30;;
78430;SDS011;67727;50.236;22.452;2024-03-23T13:00:32;13.70;;;8.00;;
78430;SDS011;67727;50.236;22.452;2024-03-23T13:02:59;12.60;;;8.60;;
78430;SDS011;67727;50.236;22.452;2024-03-23T13:05:25;14.00;;;8.90;;
78430;SDS011;67727;50.236;22.452;2024-03-23T13:07:52;19.80;;;9.70;;
78430;SDS011;67727;50.236;22.452;2024-03-23T13:10:19;14.10;;;8.20;;
78430;SDS011;67727;50.236;22.452;2024-03-23T13:12:46;16.50;;;8.90;;
78430;SDS011;67727;50.236;22.452;2024-03-23T13:15:12;14.70;;;8.00;;
78430;SDS011;67727;50.236;22.452;2024-03-23T13:17:43;12.10;;;7.60;;
78430;SDS011;67727;50.236;22.452;2024-03-23T13:20:10;20.20;;;11.30;;
78430;SDS011;67727;50.236;22.452;2024-03-23T13:22:40;13.90;;;8.50;;
78430;SDS011;67727;50.236;22.452;2024-03-23T13:25:07;14.10;;;8.90;;
78430;SDS011;67727;50.236;22.452;2024-03-23T13:27:34;12.70;;;7.90;;
78430;SDS011;67727;50.236;22.452;2024-03-23T13:30:01;18.00;;;8.40;;
78430;SDS011;67727;50.236;22.452;2024-03-23T13:32:30;14.90;;;8.20;;
78430;SDS011;67727;50.236;22.452;2024-03-23T13:34:56;12.40;;;8.40;;
78430;SDS011;67727;50.236;22.452;2024-03-23T13:37:23;15.60;;;8.80;;
78430;SDS011;67727;50.236;22.452;2024-03-23T13:39:50;14.70;;;8.40;;
78430;SDS011;67727;50.236;22.452;2024-03-23T13:42:16;17.40;;;8.20;;
78430;SDS011;67727;50.236;22.452;2024-03-23T13:44:44;15.70;;;7.90;;
78430;SDS011;67727;50.236;22.452;2024-03-23T13:47:11;14.70;;;8.40;;
78430;SDS011;67727;50.236;22.452;2024-03-23T13:49:37;15.40;;;8.20;;
78430;SDS011;67727;50.236;22.452;2024-03-23T13:52:06;13.80;;;7.50;;
78430;SDS011;67727;50.236;22.452;2024-03-23T13:54:33;12.60;;;8.10;;
78430;SDS011;67727;50.236;22.452;2024-03-23T13:57:00;14.70;;;8.50;;
78430;SDS011;67727;50.236;22.452;2024-03-23T13:59:28;10.50;;;6.90;;
78430;SDS011;67727;50.236;22.452;2024-03-23T14:01:55;10.50;;;6.30;;
78430;SDS011;67727;50.236;22.452;2024-03-23T14:04:22;12.20;;;8.20;;
78430;SDS011;67727;50.236;22.452;2024-03-23T14:06:51;10.30;;;7.60;;
78430;SDS011;67727;50.236;22.452;2024-03-23T14:09:18;12.90;;;8.00;;
78430;SDS011;67727;50.236;22.452;2024-03-23T14:11:49;13.30;;;8.50;;
78430;SDS011;67727;50.236;22.452;2024-03-23T14:14:17;12.90;;;8.60;;
78430;SDS011;67727;50.236;22.452;2024-03-23T14:16:44;12.00;;;8.00;;
78430;SDS011;67727;50.236;22.452;2024-03-23T14:19:11;13.00;;;7.80;;
78430;SDS011;67727;50.236;22.452;2024-03-23T14:21:38;12.50;;;9.00;;
78430;SDS011;67727;50.236;22.452;2024-03-23T14:24:05;14.50;;;8.80;;
78430;SDS011;67727;50.236;22.452;2024-03-23T14:28:59;14.10;;;7.90;;
78430;SDS011;67727;50.236;22.452;2024-03-23T14:31:26;13.70;;;7.80;;
78430;SDS011;67727;50.236;22.452;2024-03-23T14:33:53;11.70;;;8.90;;
78430;SDS011;67727;50.236;22.452;2024-03-23T14:36:20;11.10;;;8.40;;
78430;SDS011;67727;50.236;22.452;2024-03-23T14:38:47;11.60;;;8.40;;
78430;SDS011;67727;50.236;22.452;2024-03-23T14:41:18;13.50;;;8.70;;
78430;SDS011;67727;50.236;22.452;2024-03-23T14:43:45;14.50;;;8.40;;
78430;SDS011;67727;50.236;22.452;2024-03-23T14:46:15;12.30;;;8.40;;
78430;SDS011;67727;50.236;22.452;2024-03-23T14:48:43;13.60;;;8.50;;
78430;SDS011;67727;50.236;22.452;2024-03-23T14:51:12;13.70;;;8.90;;
78430;SDS011;67727;50.236;22.452;2024-03-23T14:53:39;15.10;;;9.30;;
78430;SDS011;67727;50.236;22.452;2024-03-23T14:56:08;11.70;;;9.00;;
78430;SDS011;67727;50.236;22.452;2024-03-23T14:58:39;12.30;;;8.40;;
78430;SDS011;67727;50.236;22.452;2024-03-23T15:01:07;14.10;;;8.40;;
78430;SDS011;67727;50.236;22.452;2024-03-23T15:03:38;11.30;;;8.20;;
78430;SDS011;67727;50.236;22.452;2024-03-23T15:06:06;14.80;;;8.10;;
78430;SDS011;67727;50.236;22.452;2024-03-23T15:08:35;12.30;;;9.40;;
78430;SDS011;67727;50.236;22.452;2024-03-23T15:11:06;15.00;;;8.60;;
78430;SDS011;67727;50.236;22.452;2024-03-23T15:13:36;16.30;;;9.20;;
78430;SDS011;67727;50.236;22.452;2024-03-23T15:16:04;14.10;;;8.60;;
78430;SDS011;67727;50.236;22.452;2024-03-23T15:18:32;14.00;;;8.30;;
78430;SDS011;67727;50.236;22.452;2024-03-23T15:20:59;13.90;;;8.70;;
78430;SDS011;67727;50.236;22.452;2024-03-23T15:23:34;12.80;;;8.70;;
78430;SDS011;67727;50.236;22.452;2024-03-23T15:26:02;15.40;;;9.90;;
78430;SDS011;67727;50.236;22.452;2024-03-23T15:28:29;16.30;;;9.40;;
78430;SDS011;67727;50.236;22.452;2024-03-23T15:31:29;15.30;;;10.50;;
78430;SDS011;67727;50.236;22.452;2024-03-23T15:33:56;17.40;;;10.30;;
78430;SDS011;67727;50.236;22.452;2024-03-23T15:36:23;16.90;;;10.60;;
78430;SDS011;67727;50.236;22.452;2024-03-23T15:38:50;13.70;;;9.80;;
78430;SDS011;67727;50.236;22.452;2024-03-23T15:41:17;18.50;;;10.60;;